Huntsville, Alabama
Current Conditions -  °F | °C
As of 1:53 PM on Thursday 27 Nov 2014 (Local Time) from KHSV Reporting Station
Broken Clouds Broken Clouds  
Wind Chill: 39°   Ceiling: 3800
Heat Index: 44°   Visibility: 10mi
Dew Point: 29°   Wind: 10mph
Humidity: 55%   Direction: 330°NNW
Pressure: 30.38"   Gusts: 18mph
Location:  34.73°N, 86.58°W
Report Text: KHSV 271953Z 33009G16KT 10SM BKN038 07/M02 A3038 RMK AO2 SLP289 T00671017
Loading
Personal Weather Stations






























Interactive Weather Map New forecast layout! Learn more

10-Day Weather Forecast

Advertisements
Track Severe Weather on mobile